sensor_id;sensor_type;location;lat;lon;timestamp;P1;durP1;ratioP1;P2;durP2;ratioP2
69280;SDS011;56392;51.082;17.080;2024-03-17T00:04:31;10.07;;;2.30;;
69280;SDS011;56392;51.082;17.080;2024-03-17T00:09:54;9.10;;;2.20;;
69280;SDS011;56392;51.082;17.080;2024-03-17T00:15:17;9.13;;;2.10;;
69280;SDS011;56392;51.082;17.080;2024-03-17T00:20:42;10.60;;;2.70;;
69280;SDS011;56392;51.082;17.080;2024-03-17T00:26:05;9.77;;;2.50;;
69280;SDS011;56392;51.082;17.080;2024-03-17T00:31:28;10.52;;;2.60;;
69280;SDS011;56392;51.082;17.080;2024-03-17T00:36:54;12.33;;;2.83;;
69280;SDS011;56392;51.082;17.080;2024-03-17T00:42:17;10.23;;;2.90;;
69280;SDS011;56392;51.082;17.080;2024-03-17T00:47:40;10.38;;;2.83;;
69280;SDS011;56392;51.082;17.080;2024-03-17T00:53:06;9.60;;;2.73;;
69280;SDS011;56392;51.082;17.080;2024-03-17T00:58:30;8.75;;;2.47;;
69280;SDS011;56392;51.082;17.080;2024-03-17T01:03:53;11.27;;;2.70;;
69280;SDS011;56392;51.082;17.080;2024-03-17T01:09:18;10.77;;;2.63;;
69280;SDS011;56392;51.082;17.080;2024-03-17T01:14:41;9.37;;;2.50;;
69280;SDS011;56392;51.082;17.080;2024-03-17T01:20:04;10.15;;;2.60;;
69280;SDS011;56392;51.082;17.080;2024-03-17T01:25:30;10.18;;;2.08;;
69280;SDS011;56392;51.082;17.080;2024-03-17T01:30:54;8.63;;;2.20;;
69280;SDS011;56392;51.082;17.080;2024-03-17T01:36:17;9.40;;;2.58;;
69280;SDS011;56392;51.082;17.080;2024-03-17T01:41:41;9.95;;;2.10;;
69280;SDS011;56392;51.082;17.080;2024-03-17T01:47:04;8.27;;;2.00;;
69280;SDS011;56392;51.082;17.080;2024-03-17T01:52:27;12.77;;;2.50;;
69280;SDS011;56392;51.082;17.080;2024-03-17T01:57:52;9.98;;;2.58;;
69280;SDS011;56392;51.082;17.080;2024-03-17T02:03:15;8.83;;;2.13;;
69280;SDS011;56392;51.082;17.080;2024-03-17T02:08:47;9.30;;;2.40;;
69280;SDS011;56392;51.082;17.080;2024-03-17T02:14:12;10.35;;;2.05;;
69280;SDS011;56392;51.082;17.080;2024-03-17T02:19:38;14.13;;;2.50;;
69280;SDS011;56392;51.082;17.080;2024-03-17T02:25:03;8.23;;;2.57;;
69280;SDS011;56392;51.082;17.080;2024-03-17T02:30:29;11.95;;;2.53;;
69280;SDS011;56392;51.082;17.080;2024-03-17T02:35:52;11.82;;;2.63;;
69280;SDS011;56392;51.082;17.080;2024-03-17T02:41:17;9.73;;;2.60;;
69280;SDS011;56392;51.082;17.080;2024-03-17T02:46:40;11.10;;;2.97;;
69280;SDS011;56392;51.082;17.080;2024-03-17T02:52:04;9.13;;;2.88;;
69280;SDS011;56392;51.082;17.080;2024-03-17T02:57:29;10.40;;;2.50;;
69280;SDS011;56392;51.082;17.080;2024-03-17T03:02:53;8.67;;;2.23;;
69280;SDS011;56392;51.082;17.080;2024-03-17T03:08:16;7.60;;;2.25;;
69280;SDS011;56392;51.082;17.080;2024-03-17T03:13:41;11.93;;;2.47;;
69280;SDS011;56392;51.082;17.080;2024-03-17T03:19:05;10.77;;;2.37;;
69280;SDS011;56392;51.082;17.080;2024-03-17T03:24:28;12.60;;;2.35;;
69280;SDS011;56392;51.082;17.080;2024-03-17T03:29:53;9.20;;;2.30;;
69280;SDS011;56392;51.082;17.080;2024-03-17T03:35:17;9.90;;;2.20;;
69280;SDS011;56392;51.082;17.080;2024-03-17T03:40:40;9.52;;;2.65;;
69280;SDS011;56392;51.082;17.080;2024-03-17T03:46:06;13.93;;;2.95;;
69280;SDS011;56392;51.082;17.080;2024-03-17T03:51:29;12.37;;;3.13;;
69280;SDS011;56392;51.082;17.080;2024-03-17T03:56:52;13.97;;;3.47;;
69280;SDS011;56392;51.082;17.080;2024-03-17T04:02:18;13.77;;;3.00;;
69280;SDS011;56392;51.082;17.080;2024-03-17T04:07:41;9.43;;;2.42;;
69280;SDS011;56392;51.082;17.080;2024-03-17T04:13:09;11.23;;;2.90;;
69280;SDS011;56392;51.082;17.080;2024-03-17T04:18:34;9.23;;;2.50;;
69280;SDS011;56392;51.082;17.080;2024-03-17T04:23:57;11.10;;;2.50;;
69280;SDS011;56392;51.082;17.080;2024-03-17T04:29:20;10.47;;;2.73;;
69280;SDS011;56392;51.082;17.080;2024-03-17T04:34:45;8.20;;;2.70;;
69280;SDS011;56392;51.082;17.080;2024-03-17T04:40:09;16.40;;;3.33;;
69280;SDS011;56392;51.082;17.080;2024-03-17T04:45:33;11.03;;;2.93;;
69280;SDS011;56392;51.082;17.080;2024-03-17T04:50:58;15.33;;;3.33;;
69280;SDS011;56392;51.082;17.080;2024-03-17T04:56:21;9.13;;;2.53;;
69280;SDS011;56392;51.082;17.080;2024-03-17T05:01:45;8.13;;;2.25;;
69280;SDS011;56392;51.082;17.080;2024-03-17T05:07:09;10.20;;;2.23;;
69280;SDS011;56392;51.082;17.080;2024-03-17T05:12:32;12.07;;;2.53;;
69280;SDS011;56392;51.082;17.080;2024-03-17T05:17:56;10.15;;;2.10;;
69280;SDS011;56392;51.082;17.080;2024-03-17T05:23:20;12.70;;;2.00;;
69280;SDS011;56392;51.082;17.080;2024-03-17T05:28:43;11.52;;;2.25;;
69280;SDS011;56392;51.082;17.080;2024-03-17T05:34:07;7.78;;;1.80;;
69280;SDS011;56392;51.082;17.080;2024-03-17T05:39:32;11.17;;;2.03;;
69280;SDS011;56392;51.082;17.080;2024-03-17T05:44:57;11.25;;;2.00;;
69280;SDS011;56392;51.082;17.080;2024-03-17T05:50:20;8.40;;;1.92;;
69280;SDS011;56392;51.082;17.080;2024-03-17T05:55:44;6.00;;;1.50;;
69280;SDS011;56392;51.082;17.080;2024-03-17T06:01:08;10.88;;;2.30;;
69280;SDS011;56392;51.082;17.080;2024-03-17T06:06:33;10.48;;;1.65;;
69280;SDS011;56392;51.082;17.080;2024-03-17T06:11:57;8.80;;;1.60;;
69280;SDS011;56392;51.082;17.080;2024-03-17T06:17:20;9.83;;;1.80;;
69280;SDS011;56392;51.082;17.080;2024-03-17T06:22:43;8.30;;;1.50;;
69280;SDS011;56392;51.082;17.080;2024-03-17T06:28:09;11.90;;;1.48;;
69280;SDS011;56392;51.082;17.080;2024-03-17T06:33:35;10.80;;;1.47;;
69280;SDS011;56392;51.082;17.080;2024-03-17T06:38:59;12.50;;;1.70;;
69280;SDS011;56392;51.082;17.080;2024-03-17T06:44:23;10.85;;;1.65;;
69280;SDS011;56392;51.082;17.080;2024-03-17T06:49:51;9.73;;;1.47;;
69280;SDS011;56392;51.082;17.080;2024-03-17T06:55:14;13.73;;;1.75;;
69280;SDS011;56392;51.082;17.080;2024-03-17T07:00:39;14.77;;;2.50;;
69280;SDS011;56392;51.082;17.080;2024-03-17T07:06:04;12.60;;;1.70;;
69280;SDS011;56392;51.082;17.080;2024-03-17T07:11:29;11.20;;;1.57;;
69280;SDS011;56392;51.082;17.080;2024-03-17T07:16:54;9.88;;;1.67;;
69280;SDS011;56392;51.082;17.080;2024-03-17T07:22:17;7.97;;;1.60;;
69280;SDS011;56392;51.082;17.080;2024-03-17T07:27:41;10.23;;;1.53;;
69280;SDS011;56392;51.082;17.080;2024-03-17T07:33:06;7.43;;;1.50;;
69280;SDS011;56392;51.082;17.080;2024-03-17T07:38:29;10.15;;;1.50;;
69280;SDS011;56392;51.082;17.080;2024-03-17T07:43:57;8.70;;;1.60;;
69280;SDS011;56392;51.082;17.080;2024-03-17T07:49:21;12.23;;;1.73;;
69280;SDS011;56392;51.082;17.080;2024-03-17T07:54:44;9.32;;;1.38;;
69280;SDS011;56392;51.082;17.080;2024-03-17T08:00:08;9.50;;;1.60;;
69280;SDS011;56392;51.082;17.080;2024-03-17T08:05:38;12.70;;;1.83;;
69280;SDS011;56392;51.082;17.080;2024-03-17T08:11:03;9.93;;;1.60;;
69280;SDS011;56392;51.082;17.080;2024-03-17T08:16:26;10.20;;;1.73;;
69280;SDS011;56392;51.082;17.080;2024-03-17T08:21:51;9.73;;;1.30;;
69280;SDS011;56392;51.082;17.080;2024-03-17T08:27:14;9.27;;;1.40;;
69280;SDS011;56392;51.082;17.080;2024-03-17T08:32:37;8.77;;;1.50;;
69280;SDS011;56392;51.082;17.080;2024-03-17T08:38:02;8.97;;;1.57;;
69280;SDS011;56392;51.082;17.080;2024-03-17T08:43:26;9.00;;;1.58;;
69280;SDS011;56392;51.082;17.080;2024-03-17T08:48:50;8.52;;;1.70;;
69280;SDS011;56392;51.082;17.080;2024-03-17T08:54:14;9.37;;;1.67;;
69280;SDS011;56392;51.082;17.080;2024-03-17T08:59:38;9.30;;;1.70;;
69280;SDS011;56392;51.082;17.080;2024-03-17T09:05:01;10.52;;;1.73;;
69280;SDS011;56392;51.082;17.080;2024-03-17T09:10:28;15.10;;;1.70;;
69280;SDS011;56392;51.082;17.080;2024-03-17T09:15:51;8.97;;;1.20;;
69280;SDS011;56392;51.082;17.080;2024-03-17T09:21:15;9.38;;;1.45;;
69280;SDS011;56392;51.082;17.080;2024-03-17T09:26:40;10.10;;;1.50;;
69280;SDS011;56392;51.082;17.080;2024-03-17T09:32:03;8.20;;;1.30;;
69280;SDS011;56392;51.082;17.080;2024-03-17T09:37:28;7.75;;;1.73;;
69280;SDS011;56392;51.082;17.080;2024-03-17T09:42:56;8.25;;;1.48;;
69280;SDS011;56392;51.082;17.080;2024-03-17T09:48:20;8.70;;;1.53;;
69280;SDS011;56392;51.082;17.080;2024-03-17T09:53:45;7.60;;;1.37;;
69280;SDS011;56392;51.082;17.080;2024-03-17T09:59:10;9.48;;;1.42;;
69280;SDS011;56392;51.082;17.080;2024-03-17T10:04:33;8.48;;;1.25;;
69280;SDS011;56392;51.082;17.080;2024-03-17T10:09:58;8.60;;;1.07;;
69280;SDS011;56392;51.082;17.080;2024-03-17T10:15:36;8.77;;;1.10;;
69280;SDS011;56392;51.082;17.080;2024-03-17T10:21:18;8.02;;;1.30;;
69280;SDS011;56392;51.082;17.080;2024-03-17T10:26:50;6.80;;;1.00;;
69280;SDS011;56392;51.082;17.080;2024-03-17T10:32:15;6.78;;;1.13;;
69280;SDS011;56392;51.082;17.080;2024-03-17T10:37:39;9.68;;;1.20;;
69280;SDS011;56392;51.082;17.080;2024-03-17T10:43:17;8.50;;;1.30;;
69280;SDS011;56392;51.082;17.080;2024-03-17T10:48:47;7.63;;;1.03;;
69280;SDS011;56392;51.082;17.080;2024-03-17T10:54:12;8.75;;;1.40;;
69280;SDS011;56392;51.082;17.080;2024-03-17T10:59:47;6.45;;;0.90;;
69280;SDS011;56392;51.082;17.080;2024-03-17T11:05:13;8.03;;;1.20;;
69280;SDS011;56392;51.082;17.080;2024-03-17T11:10:41;9.30;;;1.10;;
69280;SDS011;56392;51.082;17.080;2024-03-17T11:16:25;7.13;;;0.90;;
69280;SDS011;56392;51.082;17.080;2024-03-17T11:21:50;7.07;;;1.00;;
69280;SDS011;56392;51.082;17.080;2024-03-17T11:33:02;9.25;;;1.00;;
69280;SDS011;56392;51.082;17.080;2024-03-17T11:44:16;9.57;;;1.20;;
69280;SDS011;56392;51.082;17.080;2024-03-17T11:49:46;7.57;;;1.05;;
69280;SDS011;56392;51.082;17.080;2024-03-17T11:55:18;9.52;;;1.50;;
69280;SDS011;56392;51.082;17.080;2024-03-17T12:00:41;8.23;;;1.27;;
69280;SDS011;56392;51.082;17.080;2024-03-17T12:06:04;9.52;;;1.38;;
69280;SDS011;56392;51.082;17.080;2024-03-17T12:11:29;5.78;;;0.98;;
69280;SDS011;56392;51.082;17.080;2024-03-17T12:16:52;6.07;;;1.20;;
69280;SDS011;56392;51.082;17.080;2024-03-17T12:22:18;7.35;;;1.63;;
69280;SDS011;56392;51.082;17.080;2024-03-17T12:27:45;8.65;;;1.23;;
69280;SDS011;56392;51.082;17.080;2024-03-17T12:33:10;6.70;;;1.30;;
69280;SDS011;56392;51.082;17.080;2024-03-17T12:38:36;7.87;;;1.63;;
69280;SDS011;56392;51.082;17.080;2024-03-17T12:44:01;8.05;;;1.20;;
69280;SDS011;56392;51.082;17.080;2024-03-17T12:49:25;8.25;;;1.20;;
69280;SDS011;56392;51.082;17.080;2024-03-17T12:54:56;7.43;;;1.20;;
69280;SDS011;56392;51.082;17.080;2024-03-17T13:00:35;9.63;;;1.27;;
69280;SDS011;56392;51.082;17.080;2024-03-17T13:05:59;6.95;;;1.30;;
69280;SDS011;56392;51.082;17.080;2024-03-17T13:11:24;8.60;;;1.30;;
69280;SDS011;56392;51.082;17.080;2024-03-17T13:16:49;5.57;;;1.20;;
69280;SDS011;56392;51.082;17.080;2024-03-17T13:22:12;7.82;;;1.25;;
69280;SDS011;56392;51.082;17.080;2024-03-17T13:27:36;5.73;;;0.97;;
69280;SDS011;56392;51.082;17.080;2024-03-17T13:33:00;9.80;;;1.00;;
69280;SDS011;56392;51.082;17.080;2024-03-17T13:38:26;5.43;;;0.90;;
69280;SDS011;56392;51.082;17.080;2024-03-17T13:43:49;6.40;;;1.10;;
69280;SDS011;56392;51.082;17.080;2024-03-17T13:49:19;7.70;;;1.37;;
69280;SDS011;56392;51.082;17.080;2024-03-17T13:54:43;11.80;;;1.40;;
69280;SDS011;56392;51.082;17.080;2024-03-17T14:00:07;6.70;;;1.10;;
69280;SDS011;56392;51.082;17.080;2024-03-17T14:05:33;8.97;;;1.07;;
69280;SDS011;56392;51.082;17.080;2024-03-17T14:10:57;8.57;;;1.10;;
69280;SDS011;56392;51.082;17.080;2024-03-17T14:16:21;7.20;;;1.20;;
69280;SDS011;56392;51.082;17.080;2024-03-17T14:21:46;6.67;;;1.10;;
69280;SDS011;56392;51.082;17.080;2024-03-17T14:27:09;7.83;;;1.10;;
69280;SDS011;56392;51.082;17.080;2024-03-17T14:32:35;9.07;;;1.10;;
69280;SDS011;56392;51.082;17.080;2024-03-17T14:37:59;8.15;;;1.23;;
69280;SDS011;56392;51.082;17.080;2024-03-17T14:43:23;10.00;;;1.40;;
69280;SDS011;56392;51.082;17.080;2024-03-17T14:48:47;8.25;;;1.30;;
69280;SDS011;56392;51.082;17.080;2024-03-17T14:54:13;6.45;;;1.05;;
69280;SDS011;56392;51.082;17.080;2024-03-17T14:59:39;6.80;;;0.90;;
69280;SDS011;56392;51.082;17.080;2024-03-17T15:05:07;5.13;;;0.98;;
69280;SDS011;56392;51.082;17.080;2024-03-17T15:10:33;6.63;;;0.98;;
69280;SDS011;56392;51.082;17.080;2024-03-17T15:15:57;5.20;;;0.87;;
69280;SDS011;56392;51.082;17.080;2024-03-17T15:21:20;5.97;;;0.93;;
69280;SDS011;56392;51.082;17.080;2024-03-17T15:26:44;5.90;;;1.00;;
69280;SDS011;56392;51.082;17.080;2024-03-17T15:32:08;8.20;;;1.20;;
69280;SDS011;56392;51.082;17.080;2024-03-17T15:37:33;5.00;;;0.90;;
69280;SDS011;56392;51.082;17.080;2024-03-17T15:42:57;7.22;;;1.10;;
69280;SDS011;56392;51.082;17.080;2024-03-17T15:48:20;6.47;;;1.05;;
69280;SDS011;56392;51.082;17.080;2024-03-17T15:53:44;8.27;;;1.20;;
69280;SDS011;56392;51.082;17.080;2024-03-17T15:59:09;7.75;;;1.20;;
69280;SDS011;56392;51.082;17.080;2024-03-17T16:04:32;5.30;;;1.13;;
69280;SDS011;56392;51.082;17.080;2024-03-17T16:09:56;9.40;;;1.40;;
69280;SDS011;56392;51.082;17.080;2024-03-17T16:15:21;7.50;;;1.60;;
69280;SDS011;56392;51.082;17.080;2024-03-17T16:20:57;7.32;;;1.30;;
69280;SDS011;56392;51.082;17.080;2024-03-17T16:26:28;6.75;;;1.27;;
69280;SDS011;56392;51.082;17.080;2024-03-17T16:31:53;7.97;;;1.47;;
69280;SDS011;56392;51.082;17.080;2024-03-17T16:37:16;8.35;;;1.58;;
69280;SDS011;56392;51.082;17.080;2024-03-17T16:42:39;8.30;;;1.60;;
69280;SDS011;56392;51.082;17.080;2024-03-17T16:48:04;11.20;;;2.30;;
69280;SDS011;56392;51.082;17.080;2024-03-17T16:53:31;12.20;;;2.22;;
69280;SDS011;56392;51.082;17.080;2024-03-17T16:58:54;6.95;;;1.40;;
69280;SDS011;56392;51.082;17.080;2024-03-17T17:04:20;7.60;;;1.50;;
69280;SDS011;56392;51.082;17.080;2024-03-17T17:09:47;8.43;;;1.63;;
69280;SDS011;56392;51.082;17.080;2024-03-17T17:15:11;9.93;;;2.17;;
69280;SDS011;56392;51.082;17.080;2024-03-17T17:20:38;7.60;;;2.10;;
69280;SDS011;56392;51.082;17.080;2024-03-17T17:26:02;8.47;;;2.40;;
69280;SDS011;56392;51.082;17.080;2024-03-17T17:31:25;8.73;;;2.60;;
69280;SDS011;56392;51.082;17.080;2024-03-17T17:36:51;8.35;;;2.70;;
69280;SDS011;56392;51.082;17.080;2024-03-17T17:42:14;10.13;;;2.80;;
69280;SDS011;56392;51.082;17.080;2024-03-17T17:47:38;9.07;;;2.40;;
69280;SDS011;56392;51.082;17.080;2024-03-17T17:53:04;9.48;;;2.60;;
69280;SDS011;56392;51.082;17.080;2024-03-17T17:58:30;9.53;;;2.60;;
69280;SDS011;56392;51.082;17.080;2024-03-17T18:03:55;8.30;;;2.23;;
69280;SDS011;56392;51.082;17.080;2024-03-17T18:09:23;10.43;;;2.50;;
69280;SDS011;56392;51.082;17.080;2024-03-17T18:14:50;7.82;;;2.20;;
69280;SDS011;56392;51.082;17.080;2024-03-17T18:20:14;8.70;;;1.97;;
69280;SDS011;56392;51.082;17.080;2024-03-17T18:25:39;7.53;;;2.05;;
69280;SDS011;56392;51.082;17.080;2024-03-17T18:31:02;8.90;;;2.50;;
69280;SDS011;56392;51.082;17.080;2024-03-17T18:36:28;7.83;;;2.10;;
69280;SDS011;56392;51.082;17.080;2024-03-17T18:41:53;10.73;;;3.00;;
69280;SDS011;56392;51.082;17.080;2024-03-17T18:47:19;9.27;;;2.90;;
69280;SDS011;56392;51.082;17.080;2024-03-17T18:52:43;8.70;;;2.70;;
69280;SDS011;56392;51.082;17.080;2024-03-17T18:58:10;8.70;;;2.60;;
69280;SDS011;56392;51.082;17.080;2024-03-17T19:03:35;10.93;;;3.30;;
69280;SDS011;56392;51.082;17.080;2024-03-17T19:08:58;10.27;;;3.00;;
69280;SDS011;56392;51.082;17.080;2024-03-17T19:14:22;8.77;;;2.67;;
69280;SDS011;56392;51.082;17.080;2024-03-17T19:19:46;9.40;;;3.03;;
69280;SDS011;56392;51.082;17.080;2024-03-17T19:25:10;9.90;;;3.15;;
69280;SDS011;56392;51.082;17.080;2024-03-17T19:30:35;8.77;;;2.70;;
69280;SDS011;56392;51.082;17.080;2024-03-17T19:35:59;11.00;;;2.95;;
69280;SDS011;56392;51.082;17.080;2024-03-17T19:41:27;9.55;;;2.90;;
69280;SDS011;56392;51.082;17.080;2024-03-17T19:46:51;10.20;;;2.87;;
69280;SDS011;56392;51.082;17.080;2024-03-17T19:52:15;9.77;;;2.60;;
69280;SDS011;56392;51.082;17.080;2024-03-17T19:57:39;12.55;;;3.10;;
69280;SDS011;56392;51.082;17.080;2024-03-17T20:03:06;11.48;;;3.15;;
69280;SDS011;56392;51.082;17.080;2024-03-17T20:08:29;11.43;;;2.93;;
69280;SDS011;56392;51.082;17.080;2024-03-17T20:13:53;10.38;;;2.67;;
69280;SDS011;56392;51.082;17.080;2024-03-17T20:19:18;9.30;;;2.85;;
69280;SDS011;56392;51.082;17.080;2024-03-17T20:24:45;10.30;;;3.17;;
69280;SDS011;56392;51.082;17.080;2024-03-17T20:30:11;8.20;;;2.65;;
69280;SDS011;56392;51.082;17.080;2024-03-17T20:35:36;8.90;;;2.53;;
69280;SDS011;56392;51.082;17.080;2024-03-17T20:40:59;10.17;;;2.90;;
69280;SDS011;56392;51.082;17.080;2024-03-17T20:46:24;9.73;;;2.73;;
69280;SDS011;56392;51.082;17.080;2024-03-17T20:51:48;9.82;;;2.92;;
69280;SDS011;56392;51.082;17.080;2024-03-17T20:57:12;9.65;;;2.75;;
69280;SDS011;56392;51.082;17.080;2024-03-17T21:02:36;10.00;;;2.90;;
69280;SDS011;56392;51.082;17.080;2024-03-17T21:08:01;8.88;;;2.70;;
69280;SDS011;56392;51.082;17.080;2024-03-17T21:13:24;8.70;;;2.65;;
69280;SDS011;56392;51.082;17.080;2024-03-17T21:18:48;13.47;;;3.90;;
69280;SDS011;56392;51.082;17.080;2024-03-17T21:24:13;11.07;;;3.67;;
69280;SDS011;56392;51.082;17.080;2024-03-17T21:29:37;11.95;;;3.25;;
69280;SDS011;56392;51.082;17.080;2024-03-17T21:35:00;13.23;;;3.90;;
69280;SDS011;56392;51.082;17.080;2024-03-17T21:40:25;15.27;;;4.50;;
69280;SDS011;56392;51.082;17.080;2024-03-17T21:45:48;11.35;;;2.95;;
69280;SDS011;56392;51.082;17.080;2024-03-17T21:51:11;10.98;;;3.17;;
69280;SDS011;56392;51.082;17.080;2024-03-17T21:56:37;11.90;;;3.00;;
69280;SDS011;56392;51.082;17.080;2024-03-17T22:02:02;9.05;;;2.40;;
69280;SDS011;56392;51.082;17.080;2024-03-17T22:07:27;8.85;;;2.50;;
69280;SDS011;56392;51.082;17.080;2024-03-17T22:12:52;10.57;;;2.53;;
69280;SDS011;56392;51.082;17.080;2024-03-17T22:18:18;8.27;;;2.25;;
69280;SDS011;56392;51.082;17.080;2024-03-17T22:23:41;7.00;;;2.15;;
69280;SDS011;56392;51.082;17.080;2024-03-17T22:29:08;8.03;;;2.33;;
69280;SDS011;56392;51.082;17.080;2024-03-17T22:34:32;8.50;;;2.20;;
69280;SDS011;56392;51.082;17.080;2024-03-17T22:39:55;9.38;;;2.40;;
69280;SDS011;56392;51.082;17.080;2024-03-17T22:45:21;8.75;;;2.33;;
69280;SDS011;56392;51.082;17.080;2024-03-17T22:50:45;9.70;;;2.90;;
69280;SDS011;56392;51.082;17.080;2024-03-17T22:56:08;10.55;;;2.75;;
69280;SDS011;56392;51.082;17.080;2024-03-17T23:01:33;7.78;;;2.50;;
69280;SDS011;56392;51.082;17.080;2024-03-17T23:06:57;9.07;;;2.33;;
69280;SDS011;56392;51.082;17.080;2024-03-17T23:12:21;7.55;;;2.40;;
69280;SDS011;56392;51.082;17.080;2024-03-17T23:17:46;8.55;;;2.50;;
69280;SDS011;56392;51.082;17.080;2024-03-17T23:23:10;8.97;;;2.43;;
69280;SDS011;56392;51.082;17.080;2024-03-17T23:28:33;9.03;;;2.80;;
69280;SDS011;56392;51.082;17.080;2024-03-17T23:33:58;9.82;;;2.70;;
69280;SDS011;56392;51.082;17.080;2024-03-17T23:39:23;7.63;;;2.28;;
69280;SDS011;56392;51.082;17.080;2024-03-17T23:44:50;7.10;;;2.00;;
69280;SDS011;56392;51.082;17.080;2024-03-17T23:50:15;8.93;;;1.90;;
69280;SDS011;56392;51.082;17.080;2024-03-17T23:55:39;6.30;;;1.67;;
